首页
METAR-TAF:

METAR-TAF

机场 :

Bella Bella, 不列颠哥伦比亚, 加拿大

纬度: 52-11-06N, 经度: 128-09-24W, 海拔: 43米

当前天气观测

该预报发布于16分钟前的19:21 UTC
风速4节,风向南转南东
温度 7°C
湿度 93%
气压 1016 hPa
能見度: 14.5公里
散云层高于2900英尺
多云层高于3900英尺
阴天层高于4700英尺

METAR: CBBC 181921Z AUTO 16004KT 9SM SCT029 BKN039 OVC047 07/06 A3001 RMK SLP165

时间: 12:37 (19:37 UTC)

预报

该预报发布于59分钟前的18:38 UTC
预报有效从18日的 19点(UTC)到 19日的 05点(UTC)
风速3节,风向多变
能見度: 10公里
散云层高于1500英尺
多云层高于3000英尺
短暂存在
从 18日的 19点(UTC)到 19日的 05点(UTC)
能見度: 4.8公里
散云层高于800英尺
多云层高于1500英尺
阴天层高于3000英尺
阵雨, 轻雾

TAF: CBBC 181838Z 1819/1905 VRB03KT P6SM SCT015 BKN030 TEMPO 1819/1905 3SM SHRA BR SCT008 BKN015 OVC030 RMK FCST BASED ON AUTO OBS. NXT FCST BY 190100Z

超过4000个机场的气象观测和天气预报(METAR&TAF报告)。

可查询的气象台以黄色和红色小点在地图上表示。

将鼠标移到小点上方,可查看气象台名称。

然后点击查看天气观测和预报。

如需切换地图:点击带黑十字的绿色按钮放大地图;点击带横线的绿色按钮缩小地图;或者点击绿色箭头查看邻近地区的地图。


METAR-TAF: